Time;durP1;ratioP1;P1;durP2;ratioP2;P2;SDS_P1;SDS_P2;PMS_P1;PMS_P2;Temp;Humidity;BMP_temperature;BMP_pressure;BME280_temperature;BME280_humidity;BME280_pressure;Samples;Min_cycle;Max_cycle;Signal;HPM_P1;HPM_P2
2021/04/21 00:00:01;;;;;;;24.33;22.03;;;7.40;99.90;;;;;;5033277;28;20429;-66
2021/04/21 00:02:28;;;;;;;23.50;21.70;;;7.40;99.90;;;;;;5033156;28;20453;-67
2021/04/21 00:04:57;;;;;;;24.37;22.27;;;7.50;99.90;;;;;;5032759;28;20970;-67
2021/04/21 00:07:25;;;;;;;23.20;21.17;;;7.50;99.90;;;;;;5033062;28;20457;-66
2021/04/21 00:09:53;;;;;;;27.23;24.63;;;7.50;99.90;;;;;;5032756;28;20503;-66
2021/04/21 00:12:22;;;;;;;27.10;24.40;;;7.50;99.90;;;;;;5032850;28;20456;-66
2021/04/21 00:14:51;;;;;;;26.93;24.63;;;7.40;99.90;;;;;;5032902;28;20447;-67
2021/04/21 00:17:19;;;;;;;28.27;25.50;;;7.30;99.90;;;;;;5032679;28;20459;-67
2021/04/21 00:19:46;;;;;;;28.10;25.37;;;7.30;99.90;;;;;;5032634;28;21001;-67
2021/04/21 00:22:15;;;;;;;25.70;23.30;;;7.20;99.90;;;;;;5032512;28;20478;-67
2021/04/21 00:24:43;;;;;;;28.63;26.10;;;7.30;99.90;;;;;;5032840;28;20458;-68
2021/04/21 00:27:10;;;;;;;29.27;26.50;;;7.20;99.90;;;;;;5032338;28;20456;-67
2021/04/21 00:29:39;;;;;;;28.33;25.63;;;7.20;99.90;;;;;;5032910;28;20816;-67
2021/04/21 00:32:07;;;;;;;28.83;26.13;;;7.20;99.90;;;;;;5032658;28;20856;-67
2021/04/21 00:34:37;;;;;;;29.77;27.03;;;7.10;99.90;;;;;;5032458;28;20467;-68
2021/04/21 00:37:05;;;;;;;29.20;26.53;;;7.10;99.90;;;;;;5032279;28;20937;-67
2021/04/21 00:39:34;;;;;;;29.70;26.90;;;7.10;99.90;;;;;;5032563;28;20448;-67
2021/04/21 00:42:07;;;;;;;29.03;26.80;;;7.10;99.90;;;;;;5032426;28;20530;-67
2021/04/21 00:44:41;;;;;;;26.20;23.93;;;7.10;99.90;;;;;;5032578;28;20448;-67
2021/04/21 00:47:10;;;;;;;30.33;27.37;;;7.00;99.90;;;;;;5032297;28;20555;-67
2021/04/21 00:49:50;;;;;;;27.67;25.30;;;7.00;99.90;;;;;;5031981;28;20449;-67
2021/04/21 00:52:20;;;;;;;30.07;27.13;;;7.30;99.90;;;;;;5031880;28;20502;-67
2021/04/21 00:54:57;;;;;;;30.10;27.50;;;7.00;99.90;;;;;;5032164;28;20458;-67
2021/04/21 00:57:42;;;;;;;29.20;26.53;;;7.00;99.90;;;;;;5032113;28;20455;-67
2021/04/21 01:00:11;;;;;;;29.97;27.17;;;7.00;99.90;;;;;;5031994;28;20456;-67
2021/04/21 01:02:42;;;;;;;30.30;26.27;;;7.00;99.90;;;;;;5031858;28;20463;-67
2021/04/21 01:05:14;;;;;;;30.80;28.13;;;7.00;99.90;;;;;;5031704;28;20457;-67
2021/04/21 01:07:41;;;;;;;31.80;28.63;;;7.00;99.90;;;;;;5031757;28;20952;-68
2021/04/21 01:10:11;;;;;;;30.33;27.60;;;7.00;99.90;;;;;;5031572;28;20943;-67
2021/04/21 01:12:38;;;;;;;30.83;27.80;;;7.00;99.90;;;;;;5031830;28;20604;-67
2021/04/21 01:15:08;;;;;;;31.00;27.90;;;6.90;99.90;;;;;;5031887;28;20871;-66
2021/04/21 01:17:39;;;;;;;29.33;26.63;;;6.90;99.90;;;;;;5031887;28;20462;-67
2021/04/21 01:20:16;;;;;;;33.23;29.80;;;6.80;99.90;;;;;;5031497;28;20462;-67
2021/04/21 01:23:18;;;;;;;34.90;31.43;;;6.80;99.90;;;;;;5031265;28;20851;-66
2021/04/21 01:25:56;;;;;;;31.93;28.60;;;6.80;99.90;;;;;;5031579;28;20448;-67
2021/04/21 01:28:26;;;;;;;32.40;29.17;;;6.70;99.90;;;;;;5031695;28;20768;-67
2021/04/21 01:30:55;;;;;;;34.30;30.90;;;6.60;99.90;;;;;;5031380;28;20496;-67
2021/04/21 01:33:23;;;;;;;31.43;28.43;;;6.70;99.90;;;;;;5031203;28;20453;-67
2021/04/21 01:35:55;;;;;;;33.57;30.27;;;6.60;99.90;;;;;;5031434;28;20491;-67
2021/04/21 01:38:23;;;;;;;32.90;29.53;;;6.60;99.90;;;;;;5031474;28;20502;-67
2021/04/21 01:40:52;;;;;;;32.30;29.07;;;6.50;99.90;;;;;;5031344;28;20944;-68
2021/04/21 01:43:20;;;;;;;33.00;29.60;;;6.50;99.90;;;;;;5031105;28;20465;-68
2021/04/21 01:45:48;;;;;;;33.00;29.90;;;6.50;99.90;;;;;;5031304;28;20461;-68
2021/04/21 01:48:19;;;;;;;32.40;29.30;;;6.40;99.90;;;;;;5031244;28;20454;-68
2021/04/21 01:50:46;;;;;;;33.10;28.87;;;6.40;99.90;;;;;;5031241;28;20482;-67
2021/04/21 01:53:34;;;;;;;33.73;30.43;;;6.30;99.90;;;;;;5030867;28;20452;-67
2021/04/21 01:56:06;;;;;;;32.57;29.67;;;6.30;99.90;;;;;;5031472;28;20551;-68
2021/04/21 01:58:45;;;;;;;30.57;27.67;;;6.20;99.90;;;;;;5031050;28;20452;-68
2021/04/21 02:01:20;;;;;;;32.60;29.30;;;6.20;99.90;;;;;;5031174;28;20823;-67
2021/04/21 02:03:49;;;;;;;30.70;27.60;;;6.20;99.90;;;;;;5031051;28;20461;-67
2021/04/21 02:06:42;;;;;;;33.80;30.53;;;6.20;99.90;;;;;;5030976;28;20456;-68
2021/04/21 02:09:16;;;;;;;31.27;28.43;;;6.20;99.90;;;;;;5031161;28;20435;-67
2021/04/21 02:11:49;;;;;;;29.80;26.90;;;6.20;99.90;;;;;;5030919;28;20882;-66
2021/04/21 02:14:24;;;;;;;31.67;28.47;;;6.20;99.90;;;;;;5030840;28;20446;-66
2021/04/21 02:17:03;;;;;;;30.87;27.87;;;6.20;99.90;;;;;;5034416;28;20502;-67
2021/04/21 02:19:45;;;;;;;32.13;29.10;;;6.10;99.90;;;;;;5034925;28;20474;-66
2021/04/21 02:22:27;;;;;;;33.53;30.03;;;6.20;99.90;;;;;;5033525;28;20535;-67
2021/04/21 02:25:01;;;;;;;34.23;30.60;;;6.10;99.90;;;;;;5034914;28;20481;-66
2021/04/21 02:27:36;;;;;;;31.63;28.50;;;6.10;99.90;;;;;;5034797;28;20501;-67
2021/04/21 02:30:09;;;;;;;32.77;29.33;;;6.10;99.90;;;;;;5034848;28;20452;-67
2021/04/21 02:32:53;;;;;;;34.37;31.03;;;6.10;99.90;;;;;;5034712;28;20460;-67
2021/04/21 02:35:25;;;;;;;35.13;31.70;;;6.20;99.90;;;;;;5034547;28;20452;-66
2021/04/21 02:38:04;;;;;;;35.00;31.43;;;6.10;99.90;;;;;;5034839;28;20796;-66
2021/04/21 02:40:44;;;;;;;36.47;32.73;;;6.10;99.90;;;;;;5034669;28;20473;-67
2021/04/21 02:43:19;;;;;;;34.23;30.60;;;6.10;99.90;;;;;;5034597;28;20449;-66
2021/04/21 02:45:56;;;;;;;33.00;29.63;;;6.10;99.90;;;;;;5034396;28;20936;-67
2021/04/21 02:48:43;;;;;;;32.30;29.20;;;6.10;99.90;;;;;;5034546;28;20538;-67
2021/04/21 02:51:14;;;;;;;30.97;28.17;;;6.10;99.90;;;;;;5034196;28;20469;-67
2021/04/21 02:53:45;;;;;;;33.43;29.93;;;6.00;99.90;;;;;;5034196;28;20821;-68
2021/04/21 02:56:20;;;;;;;32.60;28.03;;;6.00;99.90;;;;;;5034312;28;20442;-68
2021/04/21 02:59:02;;;;;;;30.67;27.77;;;6.00;99.90;;;;;;5034799;28;20808;-67
2021/04/21 03:01:40;;;;;;;31.07;27.93;;;5.90;99.90;;;;;;5033911;28;20449;-68
2021/04/21 03:04:13;;;;;;;33.47;30.30;;;5.90;99.90;;;;;;5034349;28;20488;-68
2021/04/21 03:06:44;;;;;;;30.63;27.70;;;5.90;99.90;;;;;;5033930;28;20451;-68
2021/04/21 03:09:15;;;;;;;32.40;29.50;;;5.90;99.90;;;;;;5034070;28;20463;-67
2021/04/21 03:11:42;;;;;;;33.77;30.50;;;5.90;99.90;;;;;;5033655;28;20479;-68
2021/04/21 03:14:14;;;;;;;31.17;28.20;;;5.80;99.90;;;;;;5034231;28;20441;-68
2021/04/21 03:16:45;;;;;;;35.13;31.73;;;5.80;99.90;;;;;;5033962;28;20455;-68
2021/04/21 03:19:15;;;;;;;34.00;30.67;;;5.80;99.90;;;;;;5033797;28;20483;-67
2021/04/21 03:21:47;;;;;;;32.87;29.77;;;5.70;99.90;;;;;;5033694;28;20442;-68
2021/04/21 03:24:17;;;;;;;35.93;32.43;;;5.70;99.90;;;;;;5033784;28;20454;-68
2021/04/21 03:26:48;;;;;;;37.30;33.60;;;5.70;99.90;;;;;;5033797;28;20444;-67
2021/04/21 03:29:17;;;;;;;38.10;34.37;;;5.60;99.90;;;;;;5033912;28;20450;-67
2021/04/21 03:31:46;;;;;;;37.80;33.93;;;5.50;99.90;;;;;;5033345;28;20491;-67
2021/04/21 03:34:16;;;;;;;35.90;32.00;;;5.50;99.90;;;;;;5033698;28;20449;-67
2021/04/21 03:36:43;;;;;;;38.00;34.17;;;5.50;99.90;;;;;;5033803;28;20441;-66
2021/04/21 03:39:10;;;;;;;35.70;32.17;;;5.40;99.90;;;;;;5033872;28;20449;-67
2021/04/21 03:41:37;;;;;;;33.60;30.40;;;5.40;99.90;;;;;;5033526;28;20761;-67
2021/04/21 03:44:04;;;;;;;35.60;32.03;;;5.40;99.90;;;;;;5033541;28;20975;-66
2021/04/21 03:46:31;;;;;;;33.83;30.50;;;5.40;99.90;;;;;;5033442;28;20446;-67
2021/04/21 03:48:59;;;;;;;33.90;30.30;;;5.40;99.90;;;;;;5033527;28;20826;-68
2021/04/21 03:51:27;;;;;;;33.13;29.90;;;5.40;99.90;;;;;;5033154;28;21032;-67
2021/04/21 03:53:54;;;;;;;33.57;30.23;;;5.40;99.90;;;;;;5033065;28;20445;-67
2021/04/21 03:56:24;;;;;;;37.47;33.73;;;5.40;99.90;;;;;;5033190;28;20448;-67
2021/04/21 03:58:54;;;;;;;33.93;30.50;;;5.40;99.90;;;;;;5033298;28;20456;-67
2021/04/21 04:01:22;;;;;;;32.83;29.50;;;5.40;99.90;;;;;;5032930;28;20465;-69
2021/04/21 04:03:51;;;;;;;34.30;30.53;;;5.40;99.90;;;;;;5033165;28;20499;-68
2021/04/21 04:06:21;;;;;;;37.43;30.90;;;5.40;99.90;;;;;;5033121;28;20492;-68
2021/04/21 04:08:50;;;;;;;36.30;31.10;;;5.40;99.90;;;;;;5033001;28;20446;-68
2021/04/21 04:11:19;;;;;;;35.17;31.87;;;5.40;99.90;;;;;;5032952;28;20891;-66
2021/04/21 04:13:47;;;;;;;33.27;30.03;;;5.40;99.90;;;;;;5032724;28;20441;-67
2021/04/21 04:16:15;;;;;;;33.67;30.37;;;5.40;99.90;;;;;;5032537;28;20456;-68
2021/04/21 04:18:43;;;;;;;37.77;34.10;;;5.40;99.90;;;;;;5032336;28;20541;-67
2021/04/21 04:21:11;;;;;;;35.87;32.13;;;5.40;99.90;;;;;;5032271;28;20483;-68
2021/04/21 04:23:39;;;;;;;35.13;31.47;;;5.40;99.90;;;;;;5032108;28;20487;-67
2021/04/21 04:26:08;;;;;;;35.90;32.33;;;5.40;99.90;;;;;;5032522;28;20452;-67
2021/04/21 04:28:35;;;;;;;36.50;32.70;;;5.40;99.90;;;;;;5032404;28;21005;-67
2021/04/21 04:31:02;;;;;;;32.10;29.00;;;5.30;99.90;;;;;;5032465;28;21006;-67
2021/04/21 04:33:30;;;;;;;30.50;27.57;;;5.30;99.90;;;;;;5032027;28;20449;-67
2021/04/21 04:35:57;;;;;;;31.37;28.43;;;5.30;99.90;;;;;;5032190;28;20449;-67
2021/04/21 04:38:24;;;;;;;30.10;27.40;;;5.20;99.90;;;;;;5031731;28;20449;-67
2021/04/21 04:40:55;;;;;;;31.47;28.17;;;5.20;99.90;;;;;;5032216;28;20441;-67
2021/04/21 04:43:23;;;;;;;30.83;27.93;;;5.20;99.90;;;;;;5032139;28;20456;-67
2021/04/21 04:45:55;;;;;;;30.17;27.13;;;5.20;99.90;;;;;;5032450;28;20456;-67
2021/04/21 04:48:30;;;;;;;32.83;29.40;;;5.20;99.90;;;;;;5032136;28;20460;-68
2021/04/21 04:51:00;;;;;;;35.30;31.40;;;5.20;99.90;;;;;;5032036;28;21310;-68
2021/04/21 04:53:28;;;;;;;33.33;29.73;;;5.20;99.90;;;;;;5032046;28;20460;-68
2021/04/21 04:55:54;;;;;;;37.20;29.90;;;5.30;99.90;;;;;;5031795;28;21166;-67
2021/04/21 04:58:26;;;;;;;32.90;29.50;;;5.30;99.90;;;;;;5031861;28;20921;-67
2021/04/21 05:00:56;;;;;;;37.47;32.00;;;5.30;99.90;;;;;;5032007;28;20433;-68
2021/04/21 05:03:24;;;;;;;32.97;29.50;;;5.30;99.90;;;;;;5031926;28;20472;-66
2021/04/21 05:05:54;;;;;;;35.00;30.20;;;5.40;99.90;;;;;;5031895;28;20459;-67
2021/04/21 05:08:23;;;;;;;32.80;29.33;;;5.50;99.90;;;;;;5031686;28;20450;-67
2021/04/21 05:10:55;;;;;;;31.97;28.57;;;5.50;99.90;;;;;;5031710;28;20492;-67
2021/04/21 05:13:23;;;;;;;31.40;28.00;;;5.50;99.90;;;;;;5031764;28;20445;-68
2021/04/21 05:16:25;;;;;;;32.13;28.90;;;5.50;99.90;;;;;;5031387;28;20454;-68
2021/04/21 05:19:40;;;;;;;31.50;28.20;;;5.70;99.90;;;;;;5031361;28;20477;-68
2021/04/21 05:22:48;;;;;;;35.00;30.03;;;6.10;99.90;;;;;;5031338;28;20474;-68
2021/04/21 05:26:07;;;;;;;33.97;29.87;;;6.40;99.90;;;;;;4998304;28;20467;-66
2021/04/21 05:29:03;;;;;;;33.67;30.13;;;6.60;99.90;;;;;;5031759;28;20434;-68
2021/04/21 05:32:20;;;;;;;33.53;29.10;;;6.90;99.90;;;;;;5031330;28;20487;-71
2021/04/21 05:35:15;;;;;;;31.60;28.60;;;7.10;99.90;;;;;;4949156;28;20449;-71
2021/04/21 05:38:22;;;;;;;33.17;29.13;;;7.30;99.90;;;;;;5031654;28;20458;-71
2021/04/21 05:41:14;;;;;;;33.73;30.23;;;7.50;99.90;;;;;;5000767;28;20941;-71
2021/04/21 05:44:53;;;;;;;31.73;28.63;;;7.60;99.90;;;;;;5031396;28;20460;-71
2021/04/21 05:47:45;;;;;;;29.50;26.70;;;7.80;99.90;;;;;;4955406;28;20495;-71
2021/04/21 05:50:38;;;;;;;28.27;25.57;;;8.00;99.90;;;;;;5030672;28;20455;-70
2021/04/21 05:53:38;;;;;;;29.77;26.97;;;8.10;99.90;;;;;;5031210;28;20444;-70
2021/04/21 05:56:38;;;;;;;32.53;29.50;;;8.10;99.90;;;;;;5031490;28;20452;-71
2021/04/21 05:59:25;;;;;;;31.17;28.13;;;8.30;99.90;;;;;;5031435;28;20528;-70
2021/04/21 06:01:53;;;;;;;31.03;28.03;;;8.50;99.90;;;;;;5031386;28;20445;-71
2021/04/21 06:04:20;;;;;;;32.53;29.20;;;8.80;99.90;;;;;;5031334;28;20460;-71
2021/04/21 06:06:47;;;;;;;35.17;30.47;;;9.00;99.90;;;;;;5031515;28;20456;-70
2021/04/21 06:09:13;;;;;;;31.20;27.93;;;9.10;99.90;;;;;;5031225;28;20457;-70
2021/04/21 06:11:39;;;;;;;32.90;28.67;;;9.20;99.90;;;;;;5031152;28;20484;-72
2021/04/21 06:14:07;;;;;;;28.60;25.80;;;9.50;99.90;;;;;;5031324;28;20458;-72
2021/04/21 06:16:35;;;;;;;32.30;28.90;;;9.80;99.90;;;;;;5031276;28;20931;-73
2021/04/21 06:19:04;;;;;;;30.97;27.23;;;10.10;99.90;;;;;;5031242;28;20470;-73
2021/04/21 06:21:36;;;;;;;29.10;26.30;;;10.10;99.90;;;;;;5031189;28;20459;-73
2021/04/21 06:24:02;;;;;;;30.90;27.83;;;10.20;99.90;;;;;;5031313;28;20445;-71
2021/04/21 06:26:30;;;;;;;29.47;26.80;;;10.20;99.90;;;;;;5031160;28;20447;-72
2021/04/21 06:29:05;;;;;;;29.77;26.87;;;10.40;99.90;;;;;;5031133;28;20452;-71
2021/04/21 06:31:37;;;;;;;30.87;27.77;;;10.40;99.90;;;;;;5031102;28;20584;-71
2021/04/21 06:34:04;;;;;;;29.67;26.90;;;10.60;99.90;;;;;;5031171;28;20512;-72
2021/04/21 06:36:39;;;;;;;30.70;27.47;;;10.70;99.90;;;;;;5030695;28;20447;-72
2021/04/21 06:39:06;;;;;;;32.97;29.57;;;10.70;99.90;;;;;;5030611;28;20452;-72
2021/04/21 06:41:32;;;;;;;33.63;30.13;;;11.00;99.90;;;;;;5028826;28;20487;-72
2021/04/21 06:43:59;;;;;;;33.03;29.43;;;11.20;99.90;;;;;;5030399;28;20512;-72
2021/04/21 06:46:25;;;;;;;28.93;26.27;;;11.40;99.90;;;;;;5030396;28;20946;-72
2021/04/21 06:48:53;;;;;;;28.57;26.17;;;11.30;99.90;;;;;;5028510;28;20958;-72
2021/04/21 06:51:20;;;;;;;28.07;25.63;;;11.50;99.90;;;;;;5030711;28;20479;-71
2021/04/21 06:53:51;;;;;;;31.20;28.30;;;11.70;99.90;;;;;;5030549;28;20449;-71
2021/04/21 06:56:17;;;;;;;28.53;25.87;;;11.50;99.90;;;;;;5030509;28;20457;-71
2021/04/21 06:58:44;;;;;;;30.20;27.50;;;11.60;99.90;;;;;;5030417;28;20460;-71
2021/04/21 07:01:10;;;;;;;29.60;26.90;;;11.60;99.90;;;;;;5030842;28;20461;-71
2021/04/21 07:03:37;;;;;;;27.80;25.47;;;11.80;99.90;;;;;;5034102;28;20510;-71
2021/04/21 07:06:04;;;;;;;27.23;24.83;;;12.10;99.90;;;;;;5034012;28;20455;-72
2021/04/21 07:08:33;;;;;;;26.60;24.30;;;12.40;99.90;;;;;;5033796;28;20453;-71
2021/04/21 07:11:02;;;;;;;31.70;29.10;;;12.40;99.90;;;;;;5033733;28;20897;-71
2021/04/21 07:13:31;;;;;;;30.33;27.70;;;12.60;99.90;;;;;;5033719;28;20476;-71
2021/04/21 07:16:00;;;;;;;27.80;25.37;;;12.70;99.90;;;;;;5033699;28;20460;-71
2021/04/21 07:18:29;;;;;;;28.13;25.63;;;12.60;99.90;;;;;;5033545;28;21069;-72
2021/04/21 07:20:57;;;;;;;30.47;27.67;;;12.80;99.90;;;;;;5033718;28;20453;-70
2021/04/21 07:23:25;;;;;;;30.63;27.90;;;13.20;99.90;;;;;;5033550;28;20481;-72
2021/04/21 07:25:52;;;;;;;30.37;27.87;;;13.70;99.90;;;;;;5033553;28;20460;-72
2021/04/21 07:28:21;;;;;;;28.90;26.20;;;13.70;99.90;;;;;;5033680;28;20466;-72
2021/04/21 07:30:48;;;;;;;27.80;25.13;;;14.00;99.60;;;;;;5033623;28;20449;-72
2021/04/21 07:33:33;;;;;;;30.30;27.67;;;13.90;99.50;;;;;;5033696;28;20459;-72
2021/04/21 07:36:10;;;;;;;29.57;27.10;;;14.00;99.70;;;;;;5033643;28;20448;-71
2021/04/21 07:38:45;;;;;;;30.93;27.90;;;14.70;98.50;;;;;;5033561;28;20787;-72
2021/04/21 07:41:13;;;;;;;26.60;24.50;;;14.70;98.10;;;;;;5033203;28;20463;-71
2021/04/21 07:43:46;;;;;;;29.43;26.80;;;14.60;98.00;;;;;;5033386;28;20438;-72
2021/04/21 07:46:15;;;;;;;31.00;28.30;;;14.50;98.10;;;;;;5033241;28;20449;-72
2021/04/21 07:48:51;;;;;;;29.10;26.37;;;14.50;98.20;;;;;;5033330;28;20955;-72
2021/04/21 07:51:44;;;;;;;30.53;27.67;;;14.80;97.80;;;;;;5031711;28;20534;-72
2021/04/21 07:54:25;;;;;;;31.10;28.00;;;15.20;97.20;;;;;;5032783;28;20441;-73
2021/04/21 07:56:58;;;;;;;30.60;28.00;;;15.50;97.00;;;;;;5032954;28;20591;-72
2021/04/21 07:59:26;;;;;;;32.13;29.20;;;15.60;96.10;;;;;;5032787;28;20445;-72
2021/04/21 08:01:54;;;;;;;31.53;28.70;;;15.80;96.40;;;;;;5032894;28;20448;-71
2021/04/21 08:04:23;;;;;;;29.77;27.23;;;16.00;95.40;;;;;;5032822;28;20459;-72
2021/04/21 08:06:52;;;;;;;31.03;28.70;;;16.20;95.10;;;;;;5032856;28;20449;-72
2021/04/21 08:09:19;;;;;;;30.43;27.83;;;16.40;95.50;;;;;;5032788;28;20447;-73
2021/04/21 08:11:45;;;;;;;30.00;27.47;;;16.70;94.00;;;;;;5032819;28;20491;-72
2021/04/21 08:14:12;;;;;;;31.27;28.47;;;16.60;94.10;;;;;;5031750;28;20515;-72
2021/04/21 08:16:39;;;;;;;31.20;28.47;;;16.90;93.70;;;;;;5032499;28;20451;-71
2021/04/21 08:19:15;;;;;;;30.67;28.17;;;17.10;93.30;;;;;;5032454;28;20531;-72
2021/04/21 08:21:43;;;;;;;31.63;28.50;;;17.30;93.10;;;;;;5032419;28;20445;-71
2021/04/21 08:24:13;;;;;;;30.63;27.83;;;17.50;92.20;;;;;;5032496;28;20459;-71
2021/04/21 08:26:40;;;;;;;30.63;27.97;;;17.20;92.60;;;;;;5032741;28;20457;-71
2021/04/21 08:29:09;;;;;;;31.13;28.53;;;17.30;92.90;;;;;;5032373;28;20471;-72
2021/04/21 08:31:36;;;;;;;30.57;28.10;;;17.40;92.40;;;;;;5032197;28;20761;-72
2021/04/21 08:34:03;;;;;;;30.57;27.80;;;17.70;92.10;;;;;;5032538;28;20453;-71
2021/04/21 08:36:30;;;;;;;31.40;29.10;;;18.10;91.00;;;;;;5032300;28;20453;-71
2021/04/21 08:38:56;;;;;;;30.00;27.57;;;17.90;90.80;;;;;;5032024;28;20460;-72
2021/04/21 08:41:23;;;;;;;29.73;27.23;;;18.10;90.70;;;;;;5031928;28;20449;-72
2021/04/21 08:43:51;;;;;;;30.63;28.10;;;18.70;89.20;;;;;;5032101;28;20445;-72
2021/04/21 08:46:19;;;;;;;31.53;29.07;;;18.80;87.00;;;;;;5032088;28;20536;-72
2021/04/21 08:48:45;;;;;;;30.03;27.63;;;18.80;87.90;;;;;;5032073;28;20511;-72
2021/04/21 08:51:15;;;;;;;30.80;28.30;;;19.40;86.00;;;;;;5031750;28;20522;-72
2021/04/21 08:53:46;;;;;;;29.50;27.17;;;20.20;83.60;;;;;;5031685;28;20452;-72
2021/04/21 08:56:17;;;;;;;31.77;29.40;;;20.90;78.60;;;;;;5031588;28;20453;-72
2021/04/21 08:58:45;;;;;;;31.07;28.77;;;21.20;76.50;;;;;;5032370;28;20437;-72
2021/04/21 09:01:13;;;;;;;30.43;27.73;;;21.70;74.60;;;;;;5031832;28;20448;-73
2021/04/21 09:03:40;;;;;;;31.33;29.03;;;22.70;70.90;;;;;;5031795;28;20444;-72
2021/04/21 09:06:07;;;;;;;30.13;27.90;;;23.50;66.10;;;;;;5031557;28;20453;-72
2021/04/21 09:08:35;;;;;;;31.70;29.30;;;24.00;64.40;;;;;;5031867;28;20444;-73
2021/04/21 09:11:02;;;;;;;30.80;28.60;;;25.00;60.50;;;;;;5031733;28;20534;-72
2021/04/21 09:13:28;;;;;;;31.03;28.73;;;25.50;59.10;;;;;;5031506;28;20970;-73
2021/04/21 09:15:54;;;;;;;31.07;28.77;;;25.80;56.60;;;;;;5031473;28;20448;-72
2021/04/21 09:18:31;;;;;;;30.20;28.20;;;26.10;55.40;;;;;;5031507;28;20512;-73
2021/04/21 09:20:57;;;;;;;31.87;29.23;;;27.00;53.20;;;;;;5031406;28;20795;-73
2021/04/21 09:23:23;;;;;;;30.20;27.90;;;27.20;51.90;;;;;;5031119;28;20484;-73
2021/04/21 09:25:53;;;;;;;30.87;28.70;;;27.70;50.50;;;;;;5031350;28;20472;-73
2021/04/21 09:28:20;;;;;;;30.90;28.67;;;27.30;49.70;;;;;;5031472;28;20542;-73
2021/04/21 09:30:51;;;;;;;31.20;28.90;;;27.60;48.40;;;;;;5031204;28;20544;-73
2021/04/21 09:33:18;;;;;;;32.37;29.73;;;27.10;48.90;;;;;;5031355;28;20456;-73
2021/04/21 09:35:46;;;;;;;30.17;28.10;;;27.40;49.30;;;;;;5031340;28;20436;-73
2021/04/21 09:38:14;;;;;;;30.67;28.67;;;27.70;48.90;;;;;;5031259;28;20453;-73
2021/04/21 09:40:45;;;;;;;31.10;28.80;;;28.30;48.20;;;;;;5031144;28;20723;-73
2021/04/21 09:43:18;;;;;;;29.50;27.40;;;28.90;46.50;;;;;;5031117;28;20453;-73
2021/04/21 09:45:45;;;;;;;30.17;28.07;;;28.60;46.80;;;;;;5031049;28;20453;-73
2021/04/21 09:48:14;;;;;;;33.70;31.30;;;29.00;45.90;;;;;;5030913;28;20942;-73
2021/04/21 09:50:42;;;;;;;30.30;28.10;;;28.60;45.10;;;;;;5031070;28;20506;-73
2021/04/21 09:53:20;;;;;;;30.37;28.20;;;28.70;45.70;;;;;;5030923;28;20983;-73
2021/04/21 09:56:14;;;;;;;30.30;28.30;;;28.20;45.90;;;;;;5031134;28;20495;-73
2021/04/21 09:58:43;;;;;;;29.23;27.03;;;28.10;46.30;;;;;;5031124;28;20832;-73
2021/04/21 10:01:28;;;;;;;29.33;27.30;;;27.80;46.70;;;;;;5030936;28;20881;-73
2021/04/21 10:04:13;;;;;;;29.07;27.27;;;28.70;45.00;;;;;;5030946;28;20657;-73
2021/04/21 10:06:42;;;;;;;28.40;26.50;;;29.20;43.80;;;;;;5030943;28;21176;-73
2021/04/21 10:09:26;;;;;;;29.03;27.10;;;29.60;43.10;;;;;;5030951;28;20460;-73
2021/04/21 10:12:11;;;;;;;30.47;28.27;;;30.00;40.40;;;;;;5030850;28;20491;-73
2021/04/21 10:14:38;;;;;;;29.17;27.23;;;29.90;40.00;;;;;;5030731;28;20453;-73
2021/04/21 10:17:06;;;;;;;26.63;25.03;;;29.20;41.20;;;;;;5030806;28;20449;-71
2021/04/21 10:19:33;;;;;;;25.90;24.30;;;29.90;39.70;;;;;;5030722;28;20514;-71
2021/04/21 10:22:00;;;;;;;25.53;23.80;;;29.70;39.60;;;;;;5030648;28;20485;-71
2021/04/21 10:24:26;;;;;;;25.67;24.17;;;30.20;38.80;;;;;;5030397;28;20453;-71
2021/04/21 10:26:53;;;;;;;23.70;22.30;;;30.60;37.20;;;;;;5030292;28;20480;-70
2021/04/21 10:29:19;;;;;;;23.47;22.17;;;30.40;36.30;;;;;;5030574;28;20449;-73
2021/04/21 10:31:46;;;;;;;24.20;22.77;;;29.90;36.80;;;;;;5030714;28;20560;-73
2021/04/21 10:34:13;;;;;;;24.23;22.73;;;30.70;35.70;;;;;;5030602;28;20449;-72
2021/04/21 10:36:42;;;;;;;24.03;22.53;;;30.60;34.40;;;;;;5031887;28;20452;-74
2021/04/21 10:39:08;;;;;;;25.07;23.57;;;30.00;36.20;;;;;;5031729;28;20453;-73
2021/04/21 10:41:36;;;;;;;24.60;23.10;;;30.30;35.40;;;;;;5014552;28;20446;-70
2021/04/21 10:44:14;;;;;;;24.07;21.93;;;30.30;34.60;;;;;;5014552;28;20939;-71
2021/04/21 10:47:02;;;;;;;24.10;22.70;;;29.90;35.00;;;;;;5019275;28;20476;-71
2021/04/21 10:49:42;;;;;;;25.00;23.30;;;29.80;35.60;;;;;;5032288;28;20448;-73
2021/04/21 10:52:17;;;;;;;23.13;21.73;;;30.00;34.90;;;;;;5030180;28;20531;-70
2021/04/21 10:54:45;;;;;;;24.67;22.97;;;30.90;34.00;;;;;;5031153;28;20444;-70
2021/04/21 10:57:34;;;;;;;26.47;24.67;;;31.10;34.50;;;;;;5032572;28;20452;-71
2021/04/21 11:00:15;;;;;;;25.63;24.07;;;29.50;34.50;;;;;;5030645;28;20531;-71
2021/04/21 11:02:53;;;;;;;24.27;22.77;;;27.90;36.70;;;;;;5030889;28;20946;-71
2021/04/21 11:05:21;;;;;;;23.43;22.00;;;27.60;37.30;;;;;;5030383;28;20822;-72
2021/04/21 11:07:59;;;;;;;24.30;22.77;;;27.70;37.00;;;;;;5032554;28;20448;-71
2021/04/21 11:10:53;;;;;;;23.80;22.40;;;28.10;36.10;;;;;;5031021;28;20452;-72
2021/04/21 11:13:43;;;;;;;25.50;23.73;;;27.90;36.10;;;;;;5008543;28;20478;-72
2021/04/21 11:16:35;;;;;;;23.13;21.50;;;29.20;35.00;;;;;;5031506;28;20444;-73
2021/04/21 11:19:24;;;;;;;22.90;21.30;;;30.10;33.50;;;;;;5030460;28;20496;-72
2021/04/21 11:22:19;;;;;;;22.63;21.43;;;30.70;32.10;;;;;;5031497;28;20512;-72
2021/04/21 11:25:24;;;;;;;22.23;20.90;;;31.70;31.40;;;;;;5032513;28;20476;-72
2021/04/21 11:27:51;;;;;;;21.50;20.30;;;31.10;30.40;;;;;;5031847;28;20487;-72
2021/04/21 11:30:59;;;;;;;19.90;18.80;;;29.80;30.80;;;;;;5030079;28;20456;-71
2021/04/21 11:33:56;;;;;;;21.17;19.97;;;28.70;31.40;;;;;;5030928;28;20473;-72
2021/04/21 11:36:46;;;;;;;20.20;18.93;;;28.00;32.30;;;;;;5029471;28;20532;-71
2021/04/21 11:39:13;;;;;;;20.43;19.13;;;27.60;33.70;;;;;;5033372;28;20449;-72
2021/04/21 11:41:42;;;;;;;18.27;17.33;;;27.60;32.30;;;;;;5033339;28;20797;-72
2021/04/21 11:44:09;;;;;;;21.60;20.40;;;27.90;33.10;;;;;;5032987;28;20459;-72
2021/04/21 11:46:57;;;;;;;21.53;20.43;;;28.90;31.80;;;;;;5033192;28;20449;-72
2021/04/21 11:49:56;;;;;;;21.77;20.37;;;29.90;30.60;;;;;;5032057;28;20447;-72
2021/04/21 11:52:52;;;;;;;22.93;21.37;;;29.70;31.50;;;;;;5032288;28;20487;-72
2021/04/21 11:55:24;;;;;;;20.87;19.73;;;30.50;30.00;;;;;;5033106;28;20962;-72
2021/04/21 11:57:53;;;;;;;21.60;20.23;;;30.00;29.90;;;;;;5032995;28;20452;-72
2021/04/21 12:00:22;;;;;;;20.80;19.50;;;30.30;29.40;;;;;;5033099;28;20930;-72
2021/04/21 12:02:48;;;;;;;21.23;19.90;;;30.60;29.30;;;;;;5032948;28;20479;-71
2021/04/21 12:05:27;;;;;;;18.33;17.33;;;30.00;29.00;;;;;;5032353;28;20821;-72
2021/04/21 12:07:56;;;;;;;19.57;18.57;;;30.60;29.40;;;;;;5032640;28;20853;-72
2021/04/21 12:10:23;;;;;;;22.30;21.00;;;30.60;29.10;;;;;;5032591;28;20526;-72
2021/04/21 12:12:49;;;;;;;21.83;20.53;;;29.40;29.90;;;;;;5032727;28;20495;-71
2021/04/21 12:15:17;;;;;;;21.40;20.10;;;29.80;30.90;;;;;;5032707;28;20499;-72
2021/04/21 12:17:54;;;;;;;21.70;20.60;;;28.80;32.50;;;;;;5032672;28;20522;-72
2021/04/21 12:20:23;;;;;;;23.13;21.70;;;29.20;31.70;;;;;;5032393;28;20468;-72
2021/04/21 12:22:49;;;;;;;21.30;20.00;;;29.40;32.00;;;;;;5032322;28;20481;-72
2021/04/21 12:25:15;;;;;;;20.80;19.60;;;29.70;30.90;;;;;;5032458;28;20957;-72
2021/04/21 12:27:42;;;;;;;22.23;20.77;;;29.80;30.20;;;;;;5032298;28;20456;-72
2021/04/21 12:30:10;;;;;;;20.93;19.80;;;29.50;30.40;;;;;;5032389;28;20508;-72
2021/04/21 12:32:37;;;;;;;19.30;18.30;;;28.50;31.10;;;;;;5032133;28;20496;-72
2021/04/21 12:35:06;;;;;;;20.90;19.70;;;28.90;30.90;;;;;;5032132;28;20464;-72
2021/04/21 12:37:32;;;;;;;20.30;19.07;;;28.40;31.30;;;;;;5032063;28;20807;-72
2021/04/21 12:39:58;;;;;;;20.07;18.87;;;28.50;31.00;;;;;;5031783;28;20448;-72
2021/04/21 12:42:25;;;;;;;19.13;18.03;;;27.90;31.40;;;;;;5032062;28;20523;-72
2021/04/21 12:44:51;;;;;;;20.07;18.87;;;28.30;30.70;;;;;;5031923;28;20453;-72
2021/04/21 12:47:17;;;;;;;17.87;16.97;;;27.00;30.80;;;;;;5032340;28;20452;-72
2021/04/21 12:49:47;;;;;;;19.50;18.50;;;26.50;31.30;;;;;;5032062;28;20484;-72
2021/04/21 12:52:14;;;;;;;18.37;17.47;;;26.20;32.00;;;;;;5031606;28;20511;-72
2021/04/21 12:54:43;;;;;;;19.23;18.17;;;26.60;31.60;;;;;;5029610;28;20452;-72
2021/04/21 12:57:11;;;;;;;17.83;16.93;;;26.80;30.60;;;;;;5031674;28;20540;-71
2021/04/21 12:59:41;;;;;;;19.83;18.43;;;26.70;31.10;;;;;;5031502;28;20507;-72